createdAt,value
2019-05-10T00:00:15.329Z,68.71
2019-05-10T00:03:02.399Z,68.62
2019-05-10T00:05:49.195Z,67.95
2019-05-10T00:08:35.539Z,71.02
2019-05-10T00:11:06.497Z,74.56
2019-05-10T00:13:43.883Z,72.75
2019-05-10T00:16:13.021Z,71.04
2019-05-10T00:18:41.711Z,67.99
2019-05-10T00:21:10.405Z,68.49
2019-05-10T00:23:39.178Z,70.78
2019-05-10T00:26:07.856Z,71.87
2019-05-10T00:28:36.480Z,72.16
2019-05-10T00:31:05.128Z,72.18
2019-05-10T00:33:33.818Z,70.38
2019-05-10T00:36:02.437Z,71.79
2019-05-10T00:38:31.107Z,70.70
2019-05-10T00:40:59.732Z,72.93
2019-05-10T00:43:28.345Z,72.57
2019-05-10T00:45:57.010Z,70.67
2019-05-10T00:48:25.633Z,69.32
2019-05-10T00:50:54.254Z,70.86
2019-05-10T00:53:22.913Z,70.54
2019-05-10T00:55:51.607Z,69.89
2019-05-10T00:58:20.300Z,69.88
2019-05-10T01:00:48.953Z,69.35
2019-05-10T01:03:17.578Z,68.70
2019-05-10T01:05:46.190Z,69.34
2019-05-10T01:08:15.032Z,69.81
2019-05-10T01:10:43.654Z,68.35
2019-05-10T01:13:12.340Z,68.03
2019-05-10T01:15:41.071Z,68.65
2019-05-10T01:18:09.697Z,67.97
2019-05-10T01:20:38.322Z,67.77
2019-05-10T01:23:07.045Z,69.88
2019-05-10T01:25:36.061Z,70.92
2019-05-10T01:28:04.734Z,70.34
2019-05-10T01:30:33.498Z,69.76
2019-05-10T01:33:02.189Z,69.40
2019-05-10T01:38:31.055Z,69.63
2019-05-10T01:40:59.741Z,70.66
2019-05-10T01:43:28.361Z,70.53
2019-05-10T01:45:57.110Z,69.54
2019-05-10T01:48:26.084Z,69.85
2019-05-10T01:50:54.707Z,72.17
2019-05-10T01:53:23.422Z,71.28
2019-05-10T01:55:53.063Z,73.46
2019-05-10T01:58:21.717Z,71.51
2019-05-10T02:00:51.137Z,69.62
2019-05-10T02:03:19.830Z,68.14
2019-05-10T02:05:48.532Z,68.18
2019-05-10T02:08:17.187Z,69.20
2019-05-10T02:10:45.862Z,67.43
2019-05-10T02:13:14.433Z,67.27
2019-05-10T02:15:43.083Z,68.31
2019-05-10T02:18:11.783Z,68.60
2019-05-10T02:20:40.475Z,69.00
2019-05-10T02:23:09.133Z,69.72
2019-05-10T02:25:37.840Z,69.13
2019-05-10T02:28:06.458Z,68.01
2019-05-10T02:30:35.119Z,68.07
2019-05-10T02:33:03.746Z,66.79
2019-05-10T02:35:32.436Z,66.43
2019-05-10T02:38:01.173Z,66.51
2019-05-10T02:40:29.881Z,64.95
2019-05-10T02:42:59.218Z,66.25
2019-05-10T02:45:27.964Z,66.94
2019-05-10T02:47:56.577Z,67.38
2019-05-10T02:50:25.192Z,68.42
2019-05-10T02:52:54.009Z,67.68
2019-05-10T02:55:23.746Z,66.43
2019-05-10T02:57:54.337Z,67.10
2019-05-10T03:00:23.002Z,67.47
2019-05-10T03:02:52.894Z,66.99
2019-05-10T03:05:21.594Z,66.60
2019-05-10T03:07:53.234Z,68.70
2019-05-10T03:10:21.858Z,70.31
2019-05-10T03:12:53.213Z,68.18
2019-05-10T03:15:21.865Z,67.74
2019-05-10T03:17:52.801Z,67.57
2019-05-10T03:20:21.619Z,67.15
2019-05-10T03:22:50.382Z,68.07
2019-05-10T03:25:19.144Z,68.85
2019-05-10T03:27:47.902Z,67.87
2019-05-10T03:30:16.808Z,68.83
2019-05-10T03:32:45.519Z,68.87
2019-05-10T03:35:14.225Z,68.33
2019-05-10T03:37:43.203Z,69.09
2019-05-10T03:40:12.440Z,69.36
2019-05-10T03:42:41.077Z,68.91
2019-05-10T03:45:10.242Z,69.50
2019-05-10T03:47:38.954Z,71.43
2019-05-10T03:50:08.015Z,72.12
2019-05-10T03:52:36.807Z,72.07
2019-05-10T03:55:06.230Z,69.64
2019-05-10T03:57:34.849Z,72.70
2019-05-10T04:00:04.943Z,70.64
2019-05-10T04:02:33.613Z,70.22
2019-05-10T04:05:02.386Z,69.81
2019-05-10T04:07:31.073Z,68.94
2019-05-10T04:09:59.810Z,68.75
2019-05-10T04:12:28.434Z,68.98
2019-05-10T04:14:57.103Z,68.95
2019-05-10T04:17:25.803Z,69.70
2019-05-10T04:19:54.485Z,69.83
2019-05-10T04:22:23.144Z,69.18
2019-05-10T04:24:51.837Z,67.25
2019-05-10T04:27:31.385Z,66.73
2019-05-10T04:29:50.905Z,66.93
2019-05-10T04:32:19.603Z,67.75
2019-05-10T04:34:48.212Z,67.57
2019-05-10T04:37:16.870Z,67.61
2019-05-10T04:39:45.497Z,67.25
2019-05-10T04:42:14.187Z,67.61
2019-05-10T04:44:42.910Z,71.14
2019-05-10T04:47:11.602Z,74.13
2019-05-10T04:49:40.218Z,72.24
2019-05-10T04:52:08.943Z,72.84
2019-05-10T04:54:37.563Z,72.31
2019-05-10T04:57:06.182Z,72.74
2019-05-10T04:59:34.929Z,72.31
2019-05-10T05:02:03.545Z,71.61
2019-05-10T05:04:32.152Z,70.47
2019-05-10T05:07:00.818Z,71.63
2019-05-10T05:09:29.500Z,68.94
2019-05-10T05:11:58.212Z,66.60
2019-05-10T05:14:26.933Z,65.12
2019-05-10T05:16:55.632Z,66.23
2019-05-10T05:19:24.326Z,66.66
2019-05-10T05:21:53.156Z,68.32
2019-05-10T05:24:22.871Z,68.92
2019-05-10T05:26:52.102Z,69.04
2019-05-10T05:29:20.753Z,68.70
2019-05-10T05:31:54.100Z,67.02
2019-05-10T05:34:19.697Z,66.94
2019-05-10T05:36:48.417Z,67.57
2019-05-10T05:39:17.041Z,68.94
2019-05-10T05:41:51.478Z,68.07
2019-05-10T05:44:20.333Z,69.35
2019-05-10T05:46:46.505Z,70.11
2019-05-10T05:49:15.119Z,68.69
2019-05-10T05:51:43.863Z,68.55
2019-05-10T05:54:15.135Z,67.72
2019-05-10T05:56:44.482Z,67.48
2019-05-10T05:59:17.520Z,66.91
2019-05-10T06:01:43.762Z,67.86
2019-05-10T06:04:12.872Z,66.62
2019-05-10T06:06:41.658Z,66.97
2019-05-10T06:09:10.278Z,67.31
2019-05-10T06:11:38.970Z,65.57
2019-05-10T06:14:10.564Z,63.68
2019-05-10T06:16:38.047Z,65.43
2019-05-10T06:19:06.735Z,64.84
2019-05-10T06:21:35.398Z,64.62
2019-05-10T06:24:07.640Z,65.46
2019-05-10T06:26:34.508Z,65.95
2019-05-10T06:29:04.713Z,65.87
2019-05-10T06:31:33.629Z,63.69
2019-05-10T06:34:02.306Z,63.39
2019-05-10T06:36:31.933Z,65.06
2019-05-10T06:39:00.688Z,65.25
2019-05-10T06:41:32.401Z,64.29
2019-05-10T06:43:59.760Z,65.16
2019-05-10T06:46:29.660Z,65.27
2019-05-10T06:49:07.063Z,66.96
2019-05-10T06:51:29.343Z,66.67
2019-05-10T06:53:58.030Z,67.04
2019-05-10T06:56:26.727Z,65.31
2019-05-10T06:58:55.457Z,64.77
2019-05-10T07:01:24.075Z,65.39
2019-05-10T07:03:52.767Z,66.01
2019-05-10T07:06:21.486Z,66.24
2019-05-10T07:08:51.758Z,68.41
2019-05-10T07:11:20.603Z,68.80
2019-05-10T07:13:52.838Z,67.87
2019-05-10T07:16:24.375Z,67.17
2019-05-10T07:18:54.837Z,66.27
2019-05-10T07:21:21.290Z,66.46
2019-05-10T07:23:49.982Z,64.79
2019-05-10T07:26:23.921Z,63.86
2019-05-10T07:28:51.813Z,62.13
2019-05-10T07:31:23.338Z,61.73
2019-05-10T07:33:49.764Z,61.90
2019-05-10T07:36:20.906Z,61.68
2019-05-10T07:38:50.338Z,63.21
2019-05-10T07:41:25.609Z,64.22
2019-05-10T07:43:49.402Z,63.48
2019-05-10T07:46:18.100Z,63.87
2019-05-10T07:48:52.655Z,64.92
2019-05-10T07:51:17.095Z,66.99
2019-05-10T07:53:45.794Z,67.17
2019-05-10T07:56:14.534Z,65.93
2019-05-10T07:58:44.855Z,64.80
2019-05-10T08:01:13.640Z,64.58
2019-05-10T08:03:48.008Z,65.74
2019-05-10T08:06:15.350Z,66.99
2019-05-10T08:08:44.529Z,67.42
2019-05-10T08:11:13.181Z,68.24
2019-05-10T08:13:41.867Z,68.28
2019-05-10T08:16:18.906Z,68.10
2019-05-10T08:18:42.524Z,67.73
2019-05-10T08:21:21.433Z,67.83
2019-05-10T08:23:43.850Z,67.13
2019-05-10T08:26:20.405Z,66.58
2019-05-10T08:28:44.690Z,65.24
2019-05-10T08:31:12.732Z,64.79
2019-05-10T08:33:46.307Z,62.23
2019-05-10T08:36:12.264Z,64.08
2019-05-10T08:38:46.738Z,64.61
2019-05-10T08:41:14.776Z,65.41
2019-05-10T08:43:43.089Z,65.22
2019-05-10T08:46:12.197Z,65.92
2019-05-10T08:48:46.693Z,64.50
2019-05-10T08:51:12.592Z,64.96
2019-05-10T08:53:42.146Z,63.38
2019-05-10T08:56:13.681Z,61.98
2019-05-10T08:58:42.262Z,61.57
2019-05-10T09:01:23.971Z,62.42
2019-05-10T09:03:42.066Z,60.88
2019-05-10T09:06:16.286Z,63.29
2019-05-10T09:08:43.129Z,62.91
2019-05-10T09:11:11.637Z,61.39
2019-05-10T09:13:45.072Z,62.23
2019-05-10T09:16:10.648Z,59.64
2019-05-10T09:18:46.622Z,60.30
2019-05-10T09:21:11.530Z,59.87
2019-05-10T09:23:42.456Z,60.35
2019-05-10T09:26:16.191Z,59.87
2019-05-10T09:28:42.155Z,58.67
2019-05-10T09:31:18.724Z,56.51
2019-05-10T09:33:49.230Z,55.46
2019-05-10T09:36:12.457Z,56.42
2019-05-10T09:38:43.539Z,54.72
2019-05-10T09:41:11.987Z,54.59
2019-05-10T09:43:48.361Z,54.73
2019-05-10T09:46:11.498Z,54.91
2019-05-10T09:48:44.739Z,53.50
2019-05-10T09:51:13.815Z,55.26
2019-05-10T09:53:42.097Z,53.69
2019-05-10T09:56:10.764Z,53.60
2019-05-10T09:58:39.461Z,53.27
2019-05-10T10:01:16.832Z,54.21
2019-05-10T10:03:43.074Z,54.41
2019-05-10T10:06:11.344Z,52.33
2019-05-10T10:08:43.428Z,50.98
2019-05-10T10:11:15.007Z,53.59
2019-05-10T10:13:43.800Z,54.58
2019-05-10T10:16:14.757Z,55.34
2019-05-10T10:18:40.801Z,54.39
2019-05-10T10:21:10.367Z,54.72
2019-05-10T10:23:39.840Z,54.32
2019-05-10T10:26:12.719Z,54.91
2019-05-10T10:28:39.809Z,54.44
2019-05-10T10:31:08.727Z,53.24
2019-05-10T10:33:38.040Z,52.35
2019-05-10T10:36:10.296Z,53.23
2019-05-10T10:38:45.351Z,53.41
2019-05-10T10:41:08.279Z,53.47
2019-05-10T10:43:37.343Z,52.84
2019-05-10T10:46:11.864Z,52.95
2019-05-10T10:48:37.050Z,53.00
2019-05-10T10:51:07.917Z,53.90
2019-05-10T10:53:36.309Z,53.86
2019-05-10T10:56:07.490Z,54.04
2019-05-10T10:58:35.437Z,54.31
2019-05-10T11:01:10.550Z,55.49
2019-05-10T11:03:34.493Z,56.69
2019-05-10T11:06:03.253Z,56.47
2019-05-10T11:08:33.183Z,55.46
2019-05-10T11:11:02.109Z,55.74
2019-05-10T11:13:44.126Z,56.28
2019-05-10T11:16:09.594Z,57.16
2019-05-10T11:18:31.907Z,55.81
2019-05-10T11:21:02.003Z,55.81
2019-05-10T11:23:38.670Z,57.14
2019-05-10T11:26:01.492Z,57.00
2019-05-10T11:28:38.801Z,55.47
2019-05-10T11:31:01.174Z,55.93
2019-05-10T11:33:33.349Z,54.50
2019-05-10T11:36:03.993Z,54.24
2019-05-10T11:38:31.712Z,52.97
2019-05-10T11:41:02.031Z,53.76
2019-05-10T11:43:31.491Z,51.74
2019-05-10T11:46:00.072Z,52.60
2019-05-10T11:48:36.868Z,50.65
2019-05-10T11:50:59.221Z,49.56
2019-05-10T11:53:27.832Z,49.22
2019-05-10T11:55:56.487Z,50.13
2019-05-10T11:58:25.173Z,49.67
2019-05-10T12:03:24.310Z,46.38
2019-05-10T12:06:04.712Z,47.27
2019-05-10T12:08:23.408Z,45.53
2019-05-10T12:10:56.711Z,45.88
2019-05-10T12:13:25.015Z,44.48
2019-05-10T12:15:52.877Z,45.24
2019-05-10T12:18:26.506Z,47.41
2019-05-10T12:21:00.234Z,47.43
2019-05-10T12:23:29.706Z,45.97
2019-05-10T12:25:59.687Z,47.35
2019-05-10T12:26:57.077Z,45.08
2019-05-10T12:28:28.506Z,42.56
2019-05-10T12:30:53.621Z,43.11
2019-05-10T12:33:27.632Z,45.74
2019-05-10T12:35:52.687Z,44.51
2019-05-10T12:38:23.552Z,43.76
2019-05-10T12:40:51.747Z,44.47
2019-05-10T12:43:21.083Z,44.30
2019-05-10T12:45:51.804Z,44.88
2019-05-10T12:48:23.249Z,45.63
2019-05-10T12:50:54.424Z,45.31
2019-05-10T12:53:21.539Z,44.26
2019-05-10T12:55:50.263Z,44.95
2019-05-10T12:58:18.881Z,45.19
2019-05-10T13:00:52.329Z,45.26
2019-05-10T13:03:19.569Z,44.57
2019-05-10T13:05:53.198Z,45.53
2019-05-10T13:08:18.773Z,44.81
2019-05-10T13:10:49.784Z,47.05
2019-05-10T13:13:23.815Z,47.57
2019-05-10T13:15:48.221Z,47.22
2019-05-10T13:18:16.955Z,47.62
2019-05-10T13:20:45.637Z,48.45
2019-05-10T13:23:16.116Z,48.74
2019-05-10T13:25:44.713Z,48.74
2019-05-10T13:28:13.327Z,47.79
2019-05-10T13:30:41.945Z,46.26
2019-05-10T13:33:10.609Z,46.69
2019-05-10T13:35:39.292Z,46.99
2019-05-10T13:38:07.990Z,47.03
2019-05-10T13:40:39.000Z,46.04
2019-05-10T13:43:07.048Z,47.83
2019-05-10T13:45:37.687Z,45.58
2019-05-10T13:48:06.173Z,45.84
2019-05-10T13:50:34.799Z,45.75
2019-05-10T13:53:03.502Z,46.98
2019-05-10T13:55:32.451Z,45.86
2019-05-10T13:58:01.137Z,45.95
2019-05-10T14:00:34.275Z,45.04
2019-05-10T14:03:04.879Z,45.61
2019-05-10T14:05:30.682Z,46.98
2019-05-10T14:07:59.297Z,47.75
2019-05-10T14:10:27.946Z,47.54
2019-05-10T14:13:02.557Z,48.23
2019-05-10T14:15:26.910Z,46.67
2019-05-10T14:17:55.639Z,46.59
2019-05-10T14:20:25.763Z,48.04
2019-05-10T14:22:58.598Z,45.98
2019-05-10T14:25:29.720Z,46.05
2019-05-10T14:27:55.507Z,45.67
2019-05-10T14:30:24.190Z,47.25
2019-05-10T14:32:52.840Z,47.70
2019-05-10T14:35:22.600Z,46.04
2019-05-10T14:37:51.512Z,45.65
2019-05-10T14:40:27.508Z,47.36
2019-05-10T14:42:50.497Z,47.10
2019-05-10T14:45:19.311Z,46.18
2019-05-10T14:47:50.557Z,47.00
2019-05-10T14:50:25.605Z,46.21
2019-05-10T14:52:48.971Z,45.09
2019-05-10T14:55:17.719Z,45.46
2019-05-10T14:57:46.332Z,44.78
2019-05-10T15:00:15.353Z,44.96
2019-05-10T15:02:43.985Z,45.88
2019-05-10T15:05:15.999Z,44.84
2019-05-10T15:07:42.944Z,43.97
2019-05-10T15:10:11.866Z,43.87
2019-05-10T15:12:40.569Z,43.94
2019-05-10T15:15:09.388Z,45.45
2019-05-10T15:17:38.098Z,45.07
2019-05-10T15:20:08.434Z,43.94
2019-05-10T15:22:37.136Z,43.05
2019-05-10T15:25:08.929Z,43.32
2019-05-10T15:27:37.539Z,43.80
2019-05-10T15:30:08.110Z,43.77
2019-05-10T15:32:37.131Z,45.10
2019-05-10T15:35:08.253Z,44.65
2019-05-10T15:37:40.849Z,44.77
2019-05-10T15:40:08.127Z,43.94
2019-05-10T15:42:38.514Z,44.95
2019-05-10T15:45:12.660Z,45.16
2019-05-10T15:47:50.528Z,44.13
2019-05-10T15:50:11.399Z,44.87
2019-05-10T15:52:46.262Z,44.64
2019-05-10T15:55:10.547Z,43.38
2019-05-10T15:57:39.253Z,43.55
2019-05-10T16:00:09.341Z,43.03
2019-05-10T16:02:38.017Z,42.98
2019-05-10T16:05:23.362Z,43.91
2019-05-10T16:07:38.592Z,43.72
2019-05-10T16:10:07.654Z,45.93
2019-05-10T16:12:37.773Z,46.82
2019-05-10T16:15:13.665Z,45.00
2019-05-10T16:17:39.040Z,44.00
2019-05-10T16:20:08.339Z,43.80
2019-05-10T16:22:36.951Z,45.01
2019-05-10T16:25:06.679Z,43.44
2019-05-10T16:27:40.410Z,43.28
2019-05-10T16:30:12.050Z,43.24
2019-05-10T16:32:38.551Z,42.12
2019-05-10T16:35:12.877Z,42.49
2019-05-10T16:37:38.559Z,44.12
2019-05-10T16:40:07.823Z,44.18
2019-05-10T16:42:36.438Z,43.17
2019-05-10T16:45:06.662Z,43.50
2019-05-10T16:47:35.391Z,44.94
2019-05-10T16:50:06.323Z,44.47
2019-05-10T16:52:34.944Z,44.98
2019-05-10T16:55:05.423Z,44.07
2019-05-10T16:57:37.398Z,43.39
2019-05-10T17:00:10.617Z,45.44
2019-05-10T17:02:42.098Z,45.37
2019-05-10T17:05:15.065Z,44.85
2019-05-10T17:07:40.918Z,43.08
2019-05-10T17:10:10.021Z,44.03
2019-05-10T17:12:38.712Z,44.06
2019-05-10T17:15:08.336Z,44.44
2019-05-10T17:17:39.060Z,43.50
2019-05-10T17:20:13.988Z,42.40
2019-05-10T17:22:38.532Z,43.59
2019-05-10T17:25:08.917Z,44.40
2019-05-10T17:27:37.714Z,44.51
2019-05-10T17:30:07.603Z,44.32
2019-05-10T17:32:36.221Z,43.36
2019-05-10T17:35:09.148Z,44.60
2019-05-10T17:37:37.802Z,47.51
2019-05-10T17:40:10.258Z,45.76
2019-05-10T17:42:41.217Z,46.32
2019-05-10T17:45:09.377Z,46.41
2019-05-10T17:47:38.065Z,45.37
2019-05-10T17:50:07.847Z,44.45
2019-05-10T17:52:36.563Z,44.12
2019-05-10T17:55:10.872Z,43.97
2019-05-10T17:57:37.057Z,43.48
2019-05-10T18:00:08.063Z,43.51
2019-05-10T18:02:36.674Z,45.09
2019-05-10T18:05:07.961Z,43.88
2019-05-10T18:07:36.353Z,43.96
2019-05-10T18:10:05.527Z,43.89
2019-05-10T18:12:34.222Z,44.32
2019-05-10T18:15:04.883Z,45.12
2019-05-10T18:17:33.371Z,44.52
2019-05-10T18:20:02.751Z,44.47
2019-05-10T18:22:42.202Z,44.43
2019-05-10T18:25:03.144Z,43.92
2019-05-10T18:27:31.836Z,43.13
2019-05-10T18:30:00.568Z,43.23
2019-05-10T18:32:35.585Z,43.22
2019-05-10T18:34:59.617Z,43.49
2019-05-10T18:37:28.385Z,42.96
2019-05-10T18:39:57.031Z,43.77
2019-05-10T18:42:27.729Z,43.13
2019-05-10T18:44:56.100Z,43.66
2019-05-10T18:47:24.721Z,42.54
2019-05-10T18:49:53.406Z,42.54
2019-05-10T18:52:22.126Z,42.50
2019-05-10T18:54:50.839Z,43.26
2019-05-10T18:57:19.723Z,43.01
2019-05-10T18:59:48.457Z,44.15
2019-05-10T19:02:18.212Z,42.94
2019-05-10T19:04:52.105Z,43.39
2019-05-10T19:07:18.049Z,43.27
2019-05-10T19:09:46.749Z,44.89
2019-05-10T19:12:18.705Z,44.29
2019-05-10T19:14:45.835Z,44.42
2019-05-10T19:17:14.523Z,43.78
2019-05-10T19:19:43.221Z,43.45
2019-05-10T19:22:11.963Z,44.49
2019-05-10T19:24:43.661Z,44.23
2019-05-10T19:27:12.287Z,44.87
2019-05-10T19:29:45.807Z,45.76
2019-05-10T19:32:17.896Z,45.08
2019-05-10T19:34:41.873Z,44.72
2019-05-10T19:37:10.543Z,44.32
2019-05-10T19:39:41.033Z,44.62
2019-05-10T19:42:11.176Z,45.72
2019-05-10T19:44:40.678Z,45.71
2019-05-10T19:47:11.223Z,45.04
2019-05-10T19:49:40.607Z,44.96
2019-05-10T19:52:10.959Z,44.33
2019-05-10T19:54:39.637Z,44.01
2019-05-10T19:57:15.313Z,44.67
2019-05-10T19:59:43.922Z,44.52
2019-05-10T20:02:09.112Z,44.45
2019-05-10T20:04:37.733Z,44.93
2019-05-10T20:07:06.515Z,45.24
2019-05-10T20:09:35.209Z,45.41
2019-05-10T20:12:03.893Z,45.00
2019-05-10T20:14:32.623Z,45.42
2019-05-10T20:17:04.120Z,46.93
2019-05-10T20:19:32.817Z,47.03
2019-05-10T20:22:01.556Z,48.04
2019-05-10T20:24:30.165Z,48.11
2019-05-10T20:26:58.856Z,47.58
2019-05-10T20:29:27.537Z,47.10
2019-05-10T20:31:56.218Z,46.87
2019-05-10T20:34:27.724Z,46.51
2019-05-10T20:36:56.389Z,47.26
2019-05-10T20:39:26.626Z,46.18
2019-05-10T20:41:55.315Z,47.02
2019-05-10T20:44:23.969Z,49.05
2019-05-10T20:46:52.810Z,47.58
2019-05-10T20:49:21.651Z,48.04
2019-05-10T20:51:50.413Z,46.94
2019-05-10T20:54:19.114Z,48.60
2019-05-10T20:56:47.803Z,47.20
2019-05-10T20:59:16.566Z,47.65
2019-05-10T21:01:45.235Z,46.92
2019-05-10T21:04:13.886Z,46.73
2019-05-10T21:06:42.535Z,46.05
2019-05-10T21:09:11.223Z,46.79
2019-05-10T21:11:39.909Z,46.03
2019-05-10T21:14:08.658Z,46.41
2019-05-10T21:16:37.411Z,46.69
2019-05-10T21:19:06.066Z,48.24
2019-05-10T21:21:34.801Z,48.42
2019-05-10T21:24:03.504Z,48.86
2019-05-10T21:26:32.188Z,49.30
2019-05-10T21:29:00.841Z,48.53
2019-05-10T21:31:29.457Z,48.30
2019-05-10T21:34:09.436Z,48.79
2019-05-10T21:36:28.616Z,48.98
2019-05-10T21:38:57.314Z,49.28
2019-05-10T21:41:25.928Z,48.98
2019-05-10T21:43:54.613Z,48.96
2019-05-10T21:46:23.211Z,49.40
2019-05-10T21:48:51.830Z,51.26
2019-05-10T21:51:20.483Z,49.15
2019-05-10T21:53:49.309Z,49.48
2019-05-10T21:56:18.095Z,48.97
2019-05-10T21:58:46.835Z,50.96
2019-05-10T22:01:17.624Z,50.47
2019-05-10T22:03:46.312Z,49.46
2019-05-10T22:06:15.026Z,49.68
2019-05-10T22:08:49.474Z,49.43
2019-05-10T22:11:14.067Z,48.94
2019-05-10T22:13:42.795Z,49.89
2019-05-10T22:16:11.481Z,50.58
2019-05-10T22:18:40.176Z,49.16
2019-05-10T22:21:08.821Z,48.69
2019-05-10T22:23:37.438Z,49.43
2019-05-10T22:26:06.065Z,50.36
2019-05-10T22:28:34.711Z,50.55
2019-05-10T22:31:03.408Z,49.03
2019-05-10T22:33:32.038Z,50.38
2019-05-10T22:36:00.689Z,49.56
2019-05-10T22:38:29.374Z,51.04
2019-05-10T22:40:58.067Z,50.54
2019-05-10T22:43:26.822Z,49.90
2019-05-10T22:45:55.449Z,50.78
2019-05-10T22:48:24.136Z,49.81
2019-05-10T22:50:52.855Z,50.12
2019-05-10T22:53:21.480Z,50.32
2019-05-10T22:55:50.111Z,49.38
2019-05-10T22:58:18.753Z,51.43
2019-05-10T23:00:47.524Z,49.27
2019-05-10T23:03:16.397Z,50.51
2019-05-10T23:05:45.116Z,50.26
2019-05-10T23:08:13.805Z,49.98
2019-05-10T23:10:42.435Z,50.48
2019-05-10T23:13:11.095Z,49.32
2019-05-10T23:15:39.791Z,50.38
2019-05-10T23:18:08.487Z,49.81
2019-05-10T23:20:37.147Z,49.93
2019-05-10T23:23:05.766Z,50.25
2019-05-10T23:25:34.396Z,50.47
2019-05-10T23:28:03.107Z,50.83
2019-05-10T23:30:31.810Z,49.80
2019-05-10T23:33:00.671Z,50.08
2019-05-10T23:35:29.587Z,52.34
2019-05-10T23:37:58.440Z,50.56
2019-05-10T23:40:27.299Z,49.53
2019-05-10T23:42:56.227Z,50.01
2019-05-10T23:45:25.076Z,49.50
2019-05-10T23:47:53.928Z,50.21
2019-05-10T23:50:22.846Z,50.37
2019-05-10T23:52:51.700Z,51.22
2019-05-10T23:55:20.554Z,49.81
2019-05-10T23:57:49.468Z,51.11
